Applegate, Oregon
Current Conditions -  °F | °C
As of 9:53 PM on Wednesday 22 Oct 2014 (Local Time) from KMFR Reporting Station
Few Clouds Few Clouds  
Wind Chill: 65°   Ceiling: Unl
Heat Index: 65°   Visibility: 10mi
Dew Point: 49°   Wind: 7mph
Humidity: 56%   Direction: 220°SW
Pressure: 29.85"   Gusts: 20mph
Location:  42.1499°N, 123.043°W
Report Text: KMFR 230453Z AUTO 22006G17KT 10SM FEW050 FEW060 18/09 A2985 RMK AO2 SLP104 T01830094
Loading
Personal Weather Stations






























Interactive Weather Map
Tropical Storm Tracking
New forecast layout! Learn more

10-Day Weather Forecast

Advertisements
Track Severe Weather on mobile